Time Latitude Longitude Accuracy (66% radius in meters) Altitude (meters) Speed (km/hour) Bearing (degrees) Battery (%) GPS flag
09:48:36 55.737896 37.299002 5 173 0 20.797435760498 71 1 delete
09:48:24 55.737896 37.299002 5 176 0 20.797435760498 71 1 delete
09:48:12 55.737896 37.299002 5 179 0 20.797435760498 71 1 delete
09:48:00 55.737896 37.299002 5 171 0 20.797435760498 71 1 delete
09:47:48 55.737896 37.299002 5 168 0 20.797435760498 71 1 delete
09:47:36 55.737896 37.299002 5 176 0 20.797435760498 71 1 delete
09:47:24 55.737894 37.299000 5 181 0 20.797435760498 71 1 delete
09:47:12 55.737894 37.299000 5 175 0 20.797435760498 71 1 delete
09:46:59 55.737877 37.299011 5 173 0 357.39260864258 71 1 delete
09:46:47 55.737877 37.299026 5 179 0 211.98735046387 71 1 delete
09:46:35 55.737877 37.299026 5 179 0 211.98735046387 71 1 delete
09:46:23 55.737876 37.299028 5 177 0 211.98735046387 71 1 delete
09:46:11 55.737876 37.299028 5 173 0 211.98735046387 71 1 delete
09:45:59 55.737876 37.299028 5 177 0 211.98735046387 71 1 delete
09:45:47 55.737876 37.299028 5 177 0 211.98735046387 71 1 delete
09:45:35 55.737876 37.299028 5 182 0 211.98735046387 71 1 delete
09:45:23 55.737876 37.299028 5 179 0 211.98735046387 74 1 delete
09:45:11 55.737876 37.299028 5 177 0 211.98735046387 74 1 delete
09:44:59 55.737876 37.299028 5 176 0 211.98735046387 74 1 delete
09:44:47 55.737876 37.299028 5 175 0 211.98735046387 74 1 delete
09:44:35 55.737876 37.299028 5 176 0 211.98735046387 74 1 delete
09:44:23 55.737876 37.299028 15 176 0 211.98735046387 74 1 delete
09:44:11 55.737876 37.299028 5 176 0 211.98735046387 74 1 delete
09:43:59 55.737876 37.299028 5 175 0 211.98735046387 74 1 delete
09:43:47 55.737876 37.299028 5 171 0 211.98735046387 74 1 delete
09:43:35 55.737876 37.299028 5 177 0 211.98735046387 74 1 delete
09:43:23 55.737877 37.299033 5 177 0 211.98735046387 74 1 delete
09:43:11 55.737877 37.299033 5 175 0 211.98735046387 74 1 delete
09:42:59 55.737877 37.299033 5 175 0 211.98735046387 74 1 delete
09:42:47 55.737877 37.299033 10 176 0 211.98735046387 74 1 delete
09:42:35 55.737877 37.299033 5 176 0 211.98735046387 74 1 delete
09:42:23 55.737877 37.299033 5 175 0 211.98735046387 74 1 delete
09:42:11 55.737877 37.299033 5 176 0 211.98735046387 74 1 delete
09:41:59 55.737877 37.299033 5 176 0 211.98735046387 74 1 delete
09:41:47 55.737877 37.299033 5 177 0 211.98735046387 74 1 delete
09:41:35 55.737877 37.299033 5 176 0 211.98735046387 74 1 delete
09:41:23 55.737877 37.299033 5 176 0 211.98735046387 74 1 delete
09:41:11 55.737877 37.299033 5 178 0 211.98735046387 74 1 delete
09:40:59 55.737877 37.299033 5 181 0 211.98735046387 74 1 delete
09:40:47 55.737877 37.299033 5 178 0 211.98735046387 74 1 delete
09:40:35 55.737877 37.299033 5 176 0 211.98735046387 74 1 delete
09:40:23 55.737877 37.299033 5 174 0 211.98735046387 74 1 delete
09:40:11 55.737877 37.299033 5 174 0 211.98735046387 74 1 delete
09:39:59 55.737877 37.299033 5 175 0 211.98735046387 74 1 delete
09:39:47 55.737877 37.299033 5 174 0 211.98735046387 74 1 delete
09:39:35 55.737877 37.299033 5 173 0 211.98735046387 74 1 delete
09:39:23 55.737876 37.299060 5 177 0 188.14399719238 74 1 delete
09:39:11 55.737891 37.299083 5 173 0 142.05200195312 74 1 delete
09:38:59 55.737893 37.299079 5 169 0 142.05200195312 74 1 delete
09:38:47 55.737899 37.299067 5 173 0 157.95251464844 74 1 delete